Sharon Center, Ohio
Current Conditions -  °F | °C
As of 8:54 PM on Sunday 25 Jan 2015 (Local Time) from KAKR Reporting Station
Light Snow Light Snow  
Wind Chill: 11°   Ceiling: 3100
Heat Index: 23°   Visibility: 2.5mi
Dew Point: 18°   Wind: 13mph
Humidity: 81%   Direction: 40°NE
Pressure: 29.83"   Gusts: NA
Location:  41.1°N, 81.74°W
Report Text: KAKR 260154Z AUTO 04011KT 2 1/2SM -SN BKN031 OVC045 M05/M08 A2983 RMK AO2 SLP113 P0000 T10501078 $
Loading
Personal Weather Stations






























Interactive Weather Map New forecast layout! Learn more

10-Day Weather Forecast

Advertisements
Track Severe Weather on mobile